sensor_id;sensor_type;location;lat;lon;timestamp;temperature;humidity
15543;DHT22;7873;52.230;12.856;2023-11-19T00:00:43;25.40;36.70
15543;DHT22;7873;52.230;12.856;2023-11-19T00:03:09;25.40;36.90
15543;DHT22;7873;52.230;12.856;2023-11-19T00:05:37;25.30;37.00
15543;DHT22;7873;52.230;12.856;2023-11-19T00:08:04;25.30;37.10
15543;DHT22;7873;52.230;12.856;2023-11-19T00:10:31;25.20;37.10
15543;DHT22;7873;52.230;12.856;2023-11-19T00:12:57;25.20;37.20
15543;DHT22;7873;52.230;12.856;2023-11-19T00:15:24;25.20;37.40
15543;DHT22;7873;52.230;12.856;2023-11-19T00:17:51;25.10;37.40
15543;DHT22;7873;52.230;12.856;2023-11-19T00:20:18;25.10;37.40
15543;DHT22;7873;52.230;12.856;2023-11-19T00:22:46;25.00;37.50
15543;DHT22;7873;52.230;12.856;2023-11-19T00:25:13;25.00;37.60
15543;DHT22;7873;52.230;12.856;2023-11-19T00:27:40;25.00;37.60
15543;DHT22;7873;52.230;12.856;2023-11-19T00:30:10;25.00;37.60
15543;DHT22;7873;52.230;12.856;2023-11-19T00:32:36;24.90;37.80
15543;DHT22;7873;52.230;12.856;2023-11-19T00:35:04;24.90;37.80
15543;DHT22;7873;52.230;12.856;2023-11-19T00:37:31;24.80;37.90
15543;DHT22;7873;52.230;12.856;2023-11-19T00:39:59;24.80;37.90
15543;DHT22;7873;52.230;12.856;2023-11-19T00:42:25;24.80;37.90
15543;DHT22;7873;52.230;12.856;2023-11-19T00:44:52;24.70;38.10
15543;DHT22;7873;52.230;12.856;2023-11-19T00:47:19;24.70;38.10
15543;DHT22;7873;52.230;12.856;2023-11-19T00:49:46;24.70;38.20
15543;DHT22;7873;52.230;12.856;2023-11-19T00:52:13;24.60;38.20
15543;DHT22;7873;52.230;12.856;2023-11-19T00:54:40;24.60;38.40
15543;DHT22;7873;52.230;12.856;2023-11-19T00:57:08;24.60;38.40
15543;DHT22;7873;52.230;12.856;2023-11-19T00:59:34;24.60;38.50
15543;DHT22;7873;52.230;12.856;2023-11-19T01:02:01;24.50;38.40
15543;DHT22;7873;52.230;12.856;2023-11-19T01:04:28;24.50;38.60
15543;DHT22;7873;52.230;12.856;2023-11-19T01:06:55;24.50;38.50
15543;DHT22;7873;52.230;12.856;2023-11-19T01:09:21;24.40;38.50
15543;DHT22;7873;52.230;12.856;2023-11-19T01:11:48;24.40;38.60
15543;DHT22;7873;52.230;12.856;2023-11-19T01:14:16;24.40;38.80
15543;DHT22;7873;52.230;12.856;2023-11-19T01:16:42;24.40;38.80
15543;DHT22;7873;52.230;12.856;2023-11-19T01:19:09;24.40;38.80
15543;DHT22;7873;52.230;12.856;2023-11-19T01:21:36;24.30;38.90
15543;DHT22;7873;52.230;12.856;2023-11-19T01:24:03;24.30;39.00
15543;DHT22;7873;52.230;12.856;2023-11-19T01:26:34;24.30;39.00
15543;DHT22;7873;52.230;12.856;2023-11-19T01:29:01;24.20;39.00
15543;DHT22;7873;52.230;12.856;2023-11-19T01:31:28;24.20;39.20
15543;DHT22;7873;52.230;12.856;2023-11-19T01:33:55;24.10;39.10
15543;DHT22;7873;52.230;12.856;2023-11-19T01:36:21;24.20;39.20
15543;DHT22;7873;52.230;12.856;2023-11-19T01:38:48;24.10;39.20
15543;DHT22;7873;52.230;12.856;2023-11-19T01:41:15;24.10;39.40
15543;DHT22;7873;52.230;12.856;2023-11-19T01:43:41;24.10;39.30
15543;DHT22;7873;52.230;12.856;2023-11-19T01:46:07;24.10;39.40
15543;DHT22;7873;52.230;12.856;2023-11-19T01:48:38;24.10;39.40
15543;DHT22;7873;52.230;12.856;2023-11-19T01:51:08;24.00;39.40
15543;DHT22;7873;52.230;12.856;2023-11-19T01:53:34;24.00;39.50
15543;DHT22;7873;52.230;12.856;2023-11-19T01:56:04;24.00;39.60
15543;DHT22;7873;52.230;12.856;2023-11-19T01:58:34;23.90;39.60
15543;DHT22;7873;52.230;12.856;2023-11-19T02:01:01;23.90;39.70
15543;DHT22;7873;52.230;12.856;2023-11-19T02:03:29;23.90;39.70
15543;DHT22;7873;52.230;12.856;2023-11-19T02:05:59;23.90;39.70
15543;DHT22;7873;52.230;12.856;2023-11-19T02:08:26;23.90;39.70
15543;DHT22;7873;52.230;12.856;2023-11-19T02:10:53;23.90;39.80
15543;DHT22;7873;52.230;12.856;2023-11-19T02:13:22;23.80;39.80
15543;DHT22;7873;52.230;12.856;2023-11-19T02:15:48;23.80;39.90
15543;DHT22;7873;52.230;12.856;2023-11-19T02:18:21;23.80;39.90
15543;DHT22;7873;52.230;12.856;2023-11-19T02:20:49;23.80;40.00
15543;DHT22;7873;52.230;12.856;2023-11-19T02:23:17;23.70;39.90
15543;DHT22;7873;52.230;12.856;2023-11-19T02:25:46;23.80;40.00
15543;DHT22;7873;52.230;12.856;2023-11-19T02:28:19;23.70;40.00
15543;DHT22;7873;52.230;12.856;2023-11-19T02:30:45;23.70;40.00
15543;DHT22;7873;52.230;12.856;2023-11-19T02:33:12;23.70;40.10
15543;DHT22;7873;52.230;12.856;2023-11-19T02:35:40;23.70;40.20
15543;DHT22;7873;52.230;12.856;2023-11-19T02:38:07;23.60;40.20
15543;DHT22;7873;52.230;12.856;2023-11-19T02:40:34;23.70;40.30
15543;DHT22;7873;52.230;12.856;2023-11-19T02:43:00;23.60;40.20
15543;DHT22;7873;52.230;12.856;2023-11-19T02:45:31;23.60;40.30
15543;DHT22;7873;52.230;12.856;2023-11-19T02:47:57;23.60;40.30
15543;DHT22;7873;52.230;12.856;2023-11-19T02:50:26;23.60;40.30
15543;DHT22;7873;52.230;12.856;2023-11-19T02:52:54;23.50;40.40
15543;DHT22;7873;52.230;12.856;2023-11-19T02:55:22;23.50;40.40
15543;DHT22;7873;52.230;12.856;2023-11-19T02:57:49;23.50;40.50
15543;DHT22;7873;52.230;12.856;2023-11-19T03:00:17;23.50;40.50
15543;DHT22;7873;52.230;12.856;2023-11-19T03:02:45;23.50;40.50
15543;DHT22;7873;52.230;12.856;2023-11-19T03:05:13;23.50;40.50
15543;DHT22;7873;52.230;12.856;2023-11-19T03:07:41;23.50;40.70
15543;DHT22;7873;52.230;12.856;2023-11-19T03:10:09;23.40;40.50
15543;DHT22;7873;52.230;12.856;2023-11-19T03:12:38;23.40;40.60
15543;DHT22;7873;52.230;12.856;2023-11-19T03:15:06;23.40;40.60
15543;DHT22;7873;52.230;12.856;2023-11-19T03:17:35;23.40;40.60
15543;DHT22;7873;52.230;12.856;2023-11-19T03:20:04;23.40;40.70
15543;DHT22;7873;52.230;12.856;2023-11-19T03:22:34;23.40;40.70
15543;DHT22;7873;52.230;12.856;2023-11-19T03:25:02;23.30;40.70
15543;DHT22;7873;52.230;12.856;2023-11-19T03:27:29;23.30;40.70
15543;DHT22;7873;52.230;12.856;2023-11-19T03:29:56;23.30;40.80
15543;DHT22;7873;52.230;12.856;2023-11-19T03:32:22;23.20;40.70
15543;DHT22;7873;52.230;12.856;2023-11-19T03:34:49;23.20;40.80
15543;DHT22;7873;52.230;12.856;2023-11-19T03:37:17;23.20;40.80
15543;DHT22;7873;52.230;12.856;2023-11-19T03:39:43;23.20;40.80
15543;DHT22;7873;52.230;12.856;2023-11-19T03:42:09;23.20;40.90
15543;DHT22;7873;52.230;12.856;2023-11-19T03:44:38;23.20;40.90
15543;DHT22;7873;52.230;12.856;2023-11-19T03:47:04;23.20;40.90
15543;DHT22;7873;52.230;12.856;2023-11-19T03:49:31;23.10;40.90
15543;DHT22;7873;52.230;12.856;2023-11-19T03:51:58;23.10;40.90
15543;DHT22;7873;52.230;12.856;2023-11-19T03:54:26;23.10;41.00
15543;DHT22;7873;52.230;12.856;2023-11-19T03:56:53;23.10;41.00
15543;DHT22;7873;52.230;12.856;2023-11-19T03:59:19;23.10;41.00
15543;DHT22;7873;52.230;12.856;2023-11-19T04:01:46;23.10;41.00
15543;DHT22;7873;52.230;12.856;2023-11-19T04:04:13;23.10;41.10
15543;DHT22;7873;52.230;12.856;2023-11-19T04:06:39;23.00;41.00
15543;DHT22;7873;52.230;12.856;2023-11-19T04:09:06;23.00;41.10
15543;DHT22;7873;52.230;12.856;2023-11-19T04:11:35;23.00;41.10
15543;DHT22;7873;52.230;12.856;2023-11-19T04:14:02;23.00;41.10
15543;DHT22;7873;52.230;12.856;2023-11-19T04:16:28;23.00;41.10
15543;DHT22;7873;52.230;12.856;2023-11-19T04:18:55;23.00;41.10
15543;DHT22;7873;52.230;12.856;2023-11-19T04:21:21;23.00;41.10
15543;DHT22;7873;52.230;12.856;2023-11-19T04:23:48;22.90;41.20
15543;DHT22;7873;52.230;12.856;2023-11-19T04:26:15;22.90;41.10
15543;DHT22;7873;52.230;12.856;2023-11-19T04:28:43;22.90;41.20
15543;DHT22;7873;52.230;12.856;2023-11-19T04:31:09;22.90;41.20
15543;DHT22;7873;52.230;12.856;2023-11-19T04:33:36;22.90;41.20
15543;DHT22;7873;52.230;12.856;2023-11-19T04:36:02;22.90;41.20
15543;DHT22;7873;52.230;12.856;2023-11-19T04:38:29;22.80;41.20
15543;DHT22;7873;52.230;12.856;2023-11-19T04:40:56;22.80;41.20
15543;DHT22;7873;52.230;12.856;2023-11-19T04:43:23;22.80;41.20
15543;DHT22;7873;52.230;12.856;2023-11-19T04:45:51;22.80;41.20
15543;DHT22;7873;52.230;12.856;2023-11-19T04:48:17;22.80;42.10
15543;DHT22;7873;52.230;12.856;2023-11-19T04:50:44;22.80;41.10
15543;DHT22;7873;52.230;12.856;2023-11-19T04:53:10;22.80;40.20
15543;DHT22;7873;52.230;12.856;2023-11-19T04:55:37;22.80;39.70
15543;DHT22;7873;52.230;12.856;2023-11-19T04:58:04;22.80;39.40
15543;DHT22;7873;52.230;12.856;2023-11-19T05:00:30;22.70;38.60
15543;DHT22;7873;52.230;12.856;2023-11-19T05:02:58;22.60;38.30
15543;DHT22;7873;52.230;12.856;2023-11-19T05:05:25;22.50;39.30
15543;DHT22;7873;52.230;12.856;2023-11-19T05:07:51;22.70;39.70
15543;DHT22;7873;52.230;12.856;2023-11-19T05:10:17;23.00;39.50
15543;DHT22;7873;52.230;12.856;2023-11-19T05:12:44;23.20;38.80
15543;DHT22;7873;52.230;12.856;2023-11-19T05:15:11;23.20;39.40
15543;DHT22;7873;52.230;12.856;2023-11-19T05:17:38;23.30;39.10
15543;DHT22;7873;52.230;12.856;2023-11-19T05:20:06;23.40;38.80
15543;DHT22;7873;52.230;12.856;2023-11-19T05:22:38;23.50;38.50
15543;DHT22;7873;52.230;12.856;2023-11-19T05:25:05;23.50;38.60
15543;DHT22;7873;52.230;12.856;2023-11-19T05:27:32;23.50;38.50
15543;DHT22;7873;52.230;12.856;2023-11-19T05:29:59;23.50;38.80
15543;DHT22;7873;52.230;12.856;2023-11-19T05:32:25;23.60;38.90
15543;DHT22;7873;52.230;12.856;2023-11-19T05:34:52;23.50;39.40
15543;DHT22;7873;52.230;12.856;2023-11-19T05:37:19;23.50;38.70
15543;DHT22;7873;52.230;12.856;2023-11-19T05:39:46;23.50;38.70
15543;DHT22;7873;52.230;12.856;2023-11-19T05:42:12;23.50;38.80
15543;DHT22;7873;52.230;12.856;2023-11-19T05:44:39;23.50;38.80
15543;DHT22;7873;52.230;12.856;2023-11-19T05:47:05;23.40;39.10
15543;DHT22;7873;52.230;12.856;2023-11-19T05:49:32;23.40;39.00
15543;DHT22;7873;52.230;12.856;2023-11-19T05:51:58;23.40;39.00
15543;DHT22;7873;52.230;12.856;2023-11-19T05:54:28;23.20;37.70
15543;DHT22;7873;52.230;12.856;2023-11-19T05:56:56;23.00;38.20
15543;DHT22;7873;52.230;12.856;2023-11-19T05:59:23;22.70;37.70
15543;DHT22;7873;52.230;12.856;2023-11-19T06:01:49;22.40;38.60
15543;DHT22;7873;52.230;12.856;2023-11-19T06:04:16;22.30;38.70
15543;DHT22;7873;52.230;12.856;2023-11-19T06:06:43;22.10;39.20
15543;DHT22;7873;52.230;12.856;2023-11-19T06:09:09;22.30;39.40
15543;DHT22;7873;52.230;12.856;2023-11-19T06:11:41;22.40;39.30
15543;DHT22;7873;52.230;12.856;2023-11-19T06:14:07;22.60;38.90
15543;DHT22;7873;52.230;12.856;2023-11-19T06:16:33;22.70;38.70
15543;DHT22;7873;52.230;12.856;2023-11-19T06:19:02;22.60;39.60
15543;DHT22;7873;52.230;12.856;2023-11-19T06:21:29;22.60;38.90
15543;DHT22;7873;52.230;12.856;2023-11-19T06:23:56;22.60;39.30
15543;DHT22;7873;52.230;12.856;2023-11-19T06:26:23;22.60;39.60
15543;DHT22;7873;52.230;12.856;2023-11-19T06:28:51;22.60;39.60
15543;DHT22;7873;52.230;12.856;2023-11-19T06:31:17;22.60;39.50
15543;DHT22;7873;52.230;12.856;2023-11-19T06:33:44;22.80;38.50
15543;DHT22;7873;52.230;12.856;2023-11-19T06:36:14;22.80;39.00
15543;DHT22;7873;52.230;12.856;2023-11-19T06:38:41;23.00;38.80
15543;DHT22;7873;52.230;12.856;2023-11-19T06:41:08;23.10;38.50
15543;DHT22;7873;52.230;12.856;2023-11-19T06:43:36;23.30;38.10
15543;DHT22;7873;52.230;12.856;2023-11-19T06:46:04;23.50;38.10
15543;DHT22;7873;52.230;12.856;2023-11-19T06:48:31;23.50;37.80
15543;DHT22;7873;52.230;12.856;2023-11-19T06:50:58;23.70;37.90
15543;DHT22;7873;52.230;12.856;2023-11-19T06:53:25;24.00;36.20
15543;DHT22;7873;52.230;12.856;2023-11-19T06:55:53;23.90;37.10
15543;DHT22;7873;52.230;12.856;2023-11-19T06:58:19;23.90;37.20
15543;DHT22;7873;52.230;12.856;2023-11-19T07:00:46;24.00;37.20
15543;DHT22;7873;52.230;12.856;2023-11-19T07:03:15;24.30;36.80
15543;DHT22;7873;52.230;12.856;2023-11-19T07:05:42;24.50;36.30
15543;DHT22;7873;52.230;12.856;2023-11-19T07:08:09;24.70;36.00
15543;DHT22;7873;52.230;12.856;2023-11-19T07:10:36;24.90;35.60
15543;DHT22;7873;52.230;12.856;2023-11-19T07:13:03;25.20;34.60
15543;DHT22;7873;52.230;12.856;2023-11-19T07:15:31;25.20;35.30
15543;DHT22;7873;52.230;12.856;2023-11-19T07:17:57;25.30;35.00
15543;DHT22;7873;52.230;12.856;2023-11-19T07:20:26;25.40;34.90
15543;DHT22;7873;52.230;12.856;2023-11-19T07:22:53;25.50;34.90
15543;DHT22;7873;52.230;12.856;2023-11-19T07:25:20;25.70;34.60
15543;DHT22;7873;52.230;12.856;2023-11-19T07:27:46;25.80;34.60
15543;DHT22;7873;52.230;12.856;2023-11-19T07:30:14;26.00;34.50
15543;DHT22;7873;52.230;12.856;2023-11-19T07:32:39;25.80;33.40
15543;DHT22;7873;52.230;12.856;2023-11-19T07:35:06;25.00;34.40
15543;DHT22;7873;52.230;12.856;2023-11-19T07:37:34;25.00;35.80
15543;DHT22;7873;52.230;12.856;2023-11-19T07:40:01;25.30;35.70
15543;DHT22;7873;52.230;12.856;2023-11-19T07:42:28;25.70;35.00
15543;DHT22;7873;52.230;12.856;2023-11-19T07:44:54;26.00;34.50
15543;DHT22;7873;52.230;12.856;2023-11-19T07:47:22;26.20;34.40
15543;DHT22;7873;52.230;12.856;2023-11-19T07:49:49;26.40;34.10
15543;DHT22;7873;52.230;12.856;2023-11-19T07:52:16;26.40;34.00
15543;DHT22;7873;52.230;12.856;2023-11-19T07:54:44;26.50;33.90
15543;DHT22;7873;52.230;12.856;2023-11-19T07:57:10;26.70;33.90
15543;DHT22;7873;52.230;12.856;2023-11-19T07:59:37;26.70;33.90
15543;DHT22;7873;52.230;12.856;2023-11-19T08:02:05;26.60;33.80
15543;DHT22;7873;52.230;12.856;2023-11-19T08:04:31;26.50;34.00
15543;DHT22;7873;52.230;12.856;2023-11-19T08:06:58;26.60;34.00
15543;DHT22;7873;52.230;12.856;2023-11-19T08:09:25;26.60;34.00
15543;DHT22;7873;52.230;12.856;2023-11-19T08:11:53;26.60;34.20
15543;DHT22;7873;52.230;12.856;2023-11-19T08:14:21;26.50;34.20
15543;DHT22;7873;52.230;12.856;2023-11-19T08:16:48;26.60;34.20
15543;DHT22;7873;52.230;12.856;2023-11-19T08:19:15;26.60;34.20
15543;DHT22;7873;52.230;12.856;2023-11-19T08:21:41;26.70;34.40
15543;DHT22;7873;52.230;12.856;2023-11-19T08:24:08;26.90;34.20
15543;DHT22;7873;52.230;12.856;2023-11-19T08:26:34;27.00;33.80
15543;DHT22;7873;52.230;12.856;2023-11-19T08:29:02;27.30;33.90
15543;DHT22;7873;52.230;12.856;2023-11-19T08:31:28;27.60;33.50
15543;DHT22;7873;52.230;12.856;2023-11-19T08:33:55;27.80;33.10
15543;DHT22;7873;52.230;12.856;2023-11-19T08:36:21;27.80;32.80
15543;DHT22;7873;52.230;12.856;2023-11-19T08:38:48;27.90;32.90
15543;DHT22;7873;52.230;12.856;2023-11-19T08:41:15;28.00;33.00
15543;DHT22;7873;52.230;12.856;2023-11-19T08:43:43;28.20;33.20
15543;DHT22;7873;52.230;12.856;2023-11-19T08:46:11;28.20;32.90
15543;DHT22;7873;52.230;12.856;2023-11-19T08:48:37;28.20;32.80
15543;DHT22;7873;52.230;12.856;2023-11-19T08:51:04;27.80;32.90
15543;DHT22;7873;52.230;12.856;2023-11-19T08:53:31;27.60;33.80
15543;DHT22;7873;52.230;12.856;2023-11-19T08:55:58;27.40;34.00
15543;DHT22;7873;52.230;12.856;2023-11-19T08:58:25;27.40;34.50
15543;DHT22;7873;52.230;12.856;2023-11-19T09:00:52;27.40;34.80
15543;DHT22;7873;52.230;12.856;2023-11-19T09:03:20;27.30;34.80
15543;DHT22;7873;52.230;12.856;2023-11-19T09:05:46;27.40;35.50
15543;DHT22;7873;52.230;12.856;2023-11-19T09:08:13;27.00;33.40
15543;DHT22;7873;52.230;12.856;2023-11-19T09:10:39;26.70;34.50
15543;DHT22;7873;52.230;12.856;2023-11-19T09:13:06;26.40;35.50
15543;DHT22;7873;52.230;12.856;2023-11-19T09:15:33;26.40;35.50
15543;DHT22;7873;52.230;12.856;2023-11-19T09:17:59;26.40;35.50
15543;DHT22;7873;52.230;12.856;2023-11-19T09:20:27;26.30;35.60
15543;DHT22;7873;52.230;12.856;2023-11-19T09:22:57;26.20;35.80
15543;DHT22;7873;52.230;12.856;2023-11-19T09:25:24;26.20;36.50
15543;DHT22;7873;52.230;12.856;2023-11-19T09:27:50;26.30;36.80
15543;DHT22;7873;52.230;12.856;2023-11-19T09:30:17;26.40;36.30
15543;DHT22;7873;52.230;12.856;2023-11-19T09:32:43;26.60;35.70
15543;DHT22;7873;52.230;12.856;2023-11-19T09:35:10;26.70;35.70
15543;DHT22;7873;52.230;12.856;2023-11-19T09:37:39;26.30;37.10
15543;DHT22;7873;52.230;12.856;2023-11-19T09:40:07;26.00;38.50
15543;DHT22;7873;52.230;12.856;2023-11-19T09:42:36;25.90;38.20
15543;DHT22;7873;52.230;12.856;2023-11-19T09:45:09;25.90;37.90
15543;DHT22;7873;52.230;12.856;2023-11-19T09:47:39;26.00;37.50
15543;DHT22;7873;52.230;12.856;2023-11-19T09:50:06;26.30;37.20
15543;DHT22;7873;52.230;12.856;2023-11-19T09:52:33;26.20;37.20
15543;DHT22;7873;52.230;12.856;2023-11-19T09:55:01;26.20;37.10
15543;DHT22;7873;52.230;12.856;2023-11-19T09:57:28;26.10;36.80
15543;DHT22;7873;52.230;12.856;2023-11-19T09:59:56;26.20;36.80
15543;DHT22;7873;52.230;12.856;2023-11-19T10:02:23;26.20;37.00
15543;DHT22;7873;52.230;12.856;2023-11-19T10:04:50;25.90;38.60
15543;DHT22;7873;52.230;12.856;2023-11-19T10:07:17;26.00;38.00
15543;DHT22;7873;52.230;12.856;2023-11-19T10:09:44;25.90;37.90
15543;DHT22;7873;52.230;12.856;2023-11-19T10:12:12;26.00;38.30
15543;DHT22;7873;52.230;12.856;2023-11-19T10:14:39;25.80;37.90
15543;DHT22;7873;52.230;12.856;2023-11-19T10:17:07;25.60;38.20
15543;DHT22;7873;52.230;12.856;2023-11-19T10:19:34;25.40;38.70
15543;DHT22;7873;52.230;12.856;2023-11-19T10:22:02;25.30;38.90
15543;DHT22;7873;52.230;12.856;2023-11-19T10:24:31;25.30;38.80
15543;DHT22;7873;52.230;12.856;2023-11-19T10:26:58;25.30;38.80
15543;DHT22;7873;52.230;12.856;2023-11-19T10:29:26;25.20;40.00
15543;DHT22;7873;52.230;12.856;2023-11-19T10:31:57;25.30;40.10
15543;DHT22;7873;52.230;12.856;2023-11-19T10:34:24;25.20;40.70
15543;DHT22;7873;52.230;12.856;2023-11-19T10:36:53;25.10;39.80
15543;DHT22;7873;52.230;12.856;2023-11-19T10:39:19;24.90;40.90
15543;DHT22;7873;52.230;12.856;2023-11-19T10:41:48;24.60;41.30
15543;DHT22;7873;52.230;12.856;2023-11-19T10:47:08;24.20;42.30
15543;DHT22;7873;52.230;12.856;2023-11-19T10:49:36;24.40;42.30
15543;DHT22;7873;52.230;12.856;2023-11-19T10:52:03;24.70;41.60
15543;DHT22;7873;52.230;12.856;2023-11-19T10:54:33;25.00;40.90
15543;DHT22;7873;52.230;12.856;2023-11-19T10:57:01;25.10;41.20
15543;DHT22;7873;52.230;12.856;2023-11-19T10:59:30;25.40;40.80
15543;DHT22;7873;52.230;12.856;2023-11-19T11:01:57;25.60;40.20
15543;DHT22;7873;52.230;12.856;2023-11-19T11:04:32;25.80;39.80
15543;DHT22;7873;52.230;12.856;2023-11-19T11:07:05;26.20;39.50
15543;DHT22;7873;52.230;12.856;2023-11-19T11:09:33;26.60;40.60
15543;DHT22;7873;52.230;12.856;2023-11-19T11:12:00;26.90;39.10
15543;DHT22;7873;52.230;12.856;2023-11-19T11:14:28;27.20;38.30
15543;DHT22;7873;52.230;12.856;2023-11-19T11:16:55;27.20;37.80
15543;DHT22;7873;52.230;12.856;2023-11-19T11:19:22;27.40;37.60
15543;DHT22;7873;52.230;12.856;2023-11-19T11:21:50;27.60;37.30
15543;DHT22;7873;52.230;12.856;2023-11-19T11:24:30;27.60;36.50
15543;DHT22;7873;52.230;12.856;2023-11-19T11:27:23;27.70;36.60
15543;DHT22;7873;52.230;12.856;2023-11-19T11:30:06;27.50;36.60
15543;DHT22;7873;52.230;12.856;2023-11-19T11:32:40;27.50;37.00
15543;DHT22;7873;52.230;12.856;2023-11-19T11:35:21;27.50;36.50
15543;DHT22;7873;52.230;12.856;2023-11-19T11:37:58;27.60;36.20
15543;DHT22;7873;52.230;12.856;2023-11-19T11:40:28;27.70;36.00
15543;DHT22;7873;52.230;12.856;2023-11-19T11:42:54;27.90;35.80
15543;DHT22;7873;52.230;12.856;2023-11-19T11:45:34;28.10;35.70
15543;DHT22;7873;52.230;12.856;2023-11-19T11:48:08;28.30;35.70
15543;DHT22;7873;52.230;12.856;2023-11-19T11:50:47;28.30;35.30
15543;DHT22;7873;52.230;12.856;2023-11-19T11:53:18;28.40;35.30
15543;DHT22;7873;52.230;12.856;2023-11-19T11:56:00;28.70;35.10
15543;DHT22;7873;52.230;12.856;2023-11-19T11:58:35;28.80;34.70
15543;DHT22;7873;52.230;12.856;2023-11-19T12:01:03;29.00;34.30
15543;DHT22;7873;52.230;12.856;2023-11-19T12:03:31;29.00;34.20
15543;DHT22;7873;52.230;12.856;2023-11-19T12:05:59;29.00;34.40
15543;DHT22;7873;52.230;12.856;2023-11-19T12:08:27;29.20;34.20
15543;DHT22;7873;52.230;12.856;2023-11-19T12:10:56;29.20;34.00
15543;DHT22;7873;52.230;12.856;2023-11-19T12:13:24;29.20;34.10
15543;DHT22;7873;52.230;12.856;2023-11-19T12:16:07;29.30;34.20
15543;DHT22;7873;52.230;12.856;2023-11-19T12:18:34;29.30;33.90
15543;DHT22;7873;52.230;12.856;2023-11-19T12:21:01;28.90;34.10
15543;DHT22;7873;52.230;12.856;2023-11-19T12:23:29;28.50;34.80
15543;DHT22;7873;52.230;12.856;2023-11-19T12:25:56;28.40;35.10
15543;DHT22;7873;52.230;12.856;2023-11-19T12:28:23;28.20;35.40
15543;DHT22;7873;52.230;12.856;2023-11-19T12:30:52;28.20;35.60
15543;DHT22;7873;52.230;12.856;2023-11-19T12:33:19;28.30;35.70
15543;DHT22;7873;52.230;12.856;2023-11-19T12:35:47;28.60;35.00
15543;DHT22;7873;52.230;12.856;2023-11-19T12:38:20;28.70;35.10
15543;DHT22;7873;52.230;12.856;2023-11-19T12:41:03;28.80;34.80
15543;DHT22;7873;52.230;12.856;2023-11-19T12:43:30;29.00;34.40
15543;DHT22;7873;52.230;12.856;2023-11-19T12:45:56;28.90;34.20
15543;DHT22;7873;52.230;12.856;2023-11-19T12:48:23;29.00;34.60
15543;DHT22;7873;52.230;12.856;2023-11-19T12:50:49;29.30;34.50
15543;DHT22;7873;52.230;12.856;2023-11-19T12:53:17;29.40;33.00
15543;DHT22;7873;52.230;12.856;2023-11-19T12:55:43;29.60;34.10
15543;DHT22;7873;52.230;12.856;2023-11-19T12:58:11;29.80;34.10
15543;DHT22;7873;52.230;12.856;2023-11-19T13:00:58;29.60;32.80
15543;DHT22;7873;52.230;12.856;2023-11-19T13:03:29;29.60;34.00
15543;DHT22;7873;52.230;12.856;2023-11-19T13:06:01;29.50;33.60
15543;DHT22;7873;52.230;12.856;2023-11-19T13:08:29;29.20;34.10
15543;DHT22;7873;52.230;12.856;2023-11-19T13:11:03;29.40;34.20
15543;DHT22;7873;52.230;12.856;2023-11-19T13:13:31;28.60;31.50
15543;DHT22;7873;52.230;12.856;2023-11-19T13:16:01;27.20;33.90
15543;DHT22;7873;52.230;12.856;2023-11-19T13:18:29;26.10;35.70
15543;DHT22;7873;52.230;12.856;2023-11-19T13:20:55;25.50;37.00
15543;DHT22;7873;52.230;12.856;2023-11-19T13:23:22;25.50;37.20
15543;DHT22;7873;52.230;12.856;2023-11-19T13:25:49;25.50;37.40
15543;DHT22;7873;52.230;12.856;2023-11-19T13:28:15;25.40;37.60
15543;DHT22;7873;52.230;12.856;2023-11-19T13:30:43;25.40;37.70
15543;DHT22;7873;52.230;12.856;2023-11-19T13:33:09;25.40;37.80
15543;DHT22;7873;52.230;12.856;2023-11-19T13:35:37;25.40;37.70
15543;DHT22;7873;52.230;12.856;2023-11-19T13:38:05;25.30;37.70
15543;DHT22;7873;52.230;12.856;2023-11-19T13:40:33;25.20;38.00
15543;DHT22;7873;52.230;12.856;2023-11-19T13:43:00;25.00;38.30
15543;DHT22;7873;52.230;12.856;2023-11-19T13:45:27;24.90;38.50
15543;DHT22;7873;52.230;12.856;2023-11-19T13:47:54;25.00;38.70
15543;DHT22;7873;52.230;12.856;2023-11-19T13:50:21;24.80;38.80
15543;DHT22;7873;52.230;12.856;2023-11-19T13:52:48;24.80;39.00
15543;DHT22;7873;52.230;12.856;2023-11-19T13:55:14;24.70;39.10
15543;DHT22;7873;52.230;12.856;2023-11-19T13:57:41;24.50;39.20
15543;DHT22;7873;52.230;12.856;2023-11-19T14:00:09;24.40;39.30
15543;DHT22;7873;52.230;12.856;2023-11-19T14:02:38;24.30;39.60
15543;DHT22;7873;52.230;12.856;2023-11-19T14:05:06;24.40;39.60
15543;DHT22;7873;52.230;12.856;2023-11-19T14:07:33;24.80;38.90
15543;DHT22;7873;52.230;12.856;2023-11-19T14:10:00;25.20;38.40
15543;DHT22;7873;52.230;12.856;2023-11-19T14:12:26;25.40;37.90
15543;DHT22;7873;52.230;12.856;2023-11-19T14:14:53;25.80;37.50
15543;DHT22;7873;52.230;12.856;2023-11-19T14:17:19;26.10;36.90
15543;DHT22;7873;52.230;12.856;2023-11-19T14:19:46;26.40;36.40
15543;DHT22;7873;52.230;12.856;2023-11-19T14:22:14;26.60;36.70
15543;DHT22;7873;52.230;12.856;2023-11-19T14:24:40;26.90;35.70
15543;DHT22;7873;52.230;12.856;2023-11-19T14:27:08;27.00;35.60
15543;DHT22;7873;52.230;12.856;2023-11-19T14:29:34;27.10;35.60
15543;DHT22;7873;52.230;12.856;2023-11-19T14:32:01;27.40;35.10
15543;DHT22;7873;52.230;12.856;2023-11-19T14:34:28;27.40;34.70
15543;DHT22;7873;52.230;12.856;2023-11-19T14:36:55;27.40;35.10
15543;DHT22;7873;52.230;12.856;2023-11-19T14:39:22;27.50;35.40
15543;DHT22;7873;52.230;12.856;2023-11-19T14:41:49;27.70;35.40
15543;DHT22;7873;52.230;12.856;2023-11-19T14:44:16;27.90;34.70
15543;DHT22;7873;52.230;12.856;2023-11-19T14:46:42;27.80;35.10
15543;DHT22;7873;52.230;12.856;2023-11-19T14:49:09;28.30;35.00
15543;DHT22;7873;52.230;12.856;2023-11-19T14:51:36;28.80;34.40
15543;DHT22;7873;52.230;12.856;2023-11-19T14:54:03;29.10;33.80
15543;DHT22;7873;52.230;12.856;2023-11-19T14:56:31;29.10;33.10
15543;DHT22;7873;52.230;12.856;2023-11-19T14:58:58;29.00;33.80
15543;DHT22;7873;52.230;12.856;2023-11-19T15:01:24;29.20;33.90
15543;DHT22;7873;52.230;12.856;2023-11-19T15:03:52;29.50;33.50
15543;DHT22;7873;52.230;12.856;2023-11-19T15:06:22;29.70;33.30
15543;DHT22;7873;52.230;12.856;2023-11-19T15:08:49;29.70;33.20
15543;DHT22;7873;52.230;12.856;2023-11-19T15:11:15;29.70;33.00
15543;DHT22;7873;52.230;12.856;2023-11-19T15:13:44;29.70;33.10
15543;DHT22;7873;52.230;12.856;2023-11-19T15:16:10;29.50;33.20
15543;DHT22;7873;52.230;12.856;2023-11-19T15:18:39;29.20;33.30
15543;DHT22;7873;52.230;12.856;2023-11-19T15:21:05;28.90;34.40
15543;DHT22;7873;52.230;12.856;2023-11-19T15:23:33;28.80;34.90
15543;DHT22;7873;52.230;12.856;2023-11-19T15:26:00;28.90;35.10
15543;DHT22;7873;52.230;12.856;2023-11-19T15:28:26;29.00;35.10
15543;DHT22;7873;52.230;12.856;2023-11-19T15:30:54;29.00;35.80
15543;DHT22;7873;52.230;12.856;2023-11-19T15:33:20;28.90;36.40
15543;DHT22;7873;52.230;12.856;2023-11-19T15:35:47;28.80;36.80